Time;durP1;ratioP1;P1;durP2;ratioP2;P2;SDS_P1;SDS_P2;PMS_P1;PMS_P2;Temp;Humidity;BMP_temperature;BMP_pressure;BME280_temperature;BME280_humidity;BME280_pressure;Samples;Min_cycle;Max_cycle;Signal;HPM_P1;HPM_P2
2021/03/17 00:00:35;;;;;;;3.57;3.27;;;5.50;99.90;;;;;;5063769;28;20598;-77
2021/03/17 00:03:01;;;;;;;3.00;2.70;;;5.50;99.90;;;;;;5065164;28;20258;-76
2021/03/17 00:05:31;;;;;;;3.20;2.90;;;5.50;99.90;;;;;;5062934;28;20601;-78
2021/03/17 00:07:57;;;;;;;3.67;3.27;;;5.50;99.90;;;;;;5064857;28;20197;-80
2021/03/17 00:10:25;;;;;;;2.83;2.47;;;5.50;99.90;;;;;;5064173;28;20608;-78
2021/03/17 00:12:52;;;;;;;2.40;2.20;;;5.50;99.90;;;;;;5063950;28;20205;-77
2021/03/17 00:15:20;;;;;;;2.77;2.57;;;5.50;99.90;;;;;;5070394;28;20208;-84
2021/03/17 00:17:47;;;;;;;3.00;2.70;;;5.50;99.90;;;;;;5084960;28;20250;-84
2021/03/17 00:20:13;;;;;;;2.90;2.43;;;5.50;99.90;;;;;;5076349;28;20208;-78
2021/03/17 00:22:41;;;;;;;2.47;2.23;;;5.50;99.90;;;;;;5064304;28;20209;-78
2021/03/17 00:25:09;;;;;;;3.87;2.00;;;5.40;99.90;;;;;;5065244;28;20198;-81
2021/03/17 00:27:35;;;;;;;2.53;2.17;;;5.40;99.90;;;;;;5077675;28;20215;-79
2021/03/17 00:30:02;;;;;;;2.83;2.10;;;5.40;99.90;;;;;;5084945;28;20196;-76
2021/03/17 00:32:28;;;;;;;2.40;2.20;;;5.50;99.90;;;;;;5084758;28;20204;-83
2021/03/17 00:34:55;;;;;;;2.23;1.93;;;5.40;99.90;;;;;;5064788;28;20217;-77
2021/03/17 00:37:21;;;;;;;1.77;1.67;;;5.50;99.90;;;;;;5063409;28;20232;-78
2021/03/17 00:39:48;;;;;;;3.23;1.90;;;5.50;99.90;;;;;;5065343;28;20249;-78
2021/03/17 00:42:15;;;;;;;3.10;2.10;;;5.50;99.90;;;;;;5064615;28;20205;-78
2021/03/17 00:44:41;;;;;;;3.33;1.73;;;5.50;99.90;;;;;;5064087;28;20201;-76
2021/03/17 00:47:08;;;;;;;2.23;1.70;;;5.50;99.90;;;;;;5064160;28;20197;-80
2021/03/17 00:49:34;;;;;;;1.97;1.10;;;5.50;99.90;;;;;;5066411;28;20201;-84
2021/03/17 00:52:00;;;;;;;1.53;1.43;;;5.50;99.90;;;;;;5083850;28;20212;-77
2021/03/17 00:54:26;;;;;;;1.50;1.33;;;5.50;99.90;;;;;;5078441;28;20814;-79
2021/03/17 00:56:53;;;;;;;1.50;1.40;;;5.50;99.90;;;;;;5064485;28;20579;-80
2021/03/17 00:59:20;;;;;;;1.70;1.30;;;5.50;99.90;;;;;;5064876;28;20225;-77
2021/03/17 01:01:46;;;;;;;1.93;1.10;;;5.50;99.90;;;;;;5063849;28;20201;-78
2021/03/17 01:04:12;;;;;;;1.70;0.90;;;5.50;99.90;;;;;;5063192;28;20197;-77
2021/03/17 01:06:39;;;;;;;0.97;0.70;;;5.60;99.90;;;;;;5064398;28;20208;-78
2021/03/17 01:09:06;;;;;;;2.40;1.00;;;5.60;99.90;;;;;;5064015;28;20208;-80
2021/03/17 01:11:32;;;;;;;1.03;0.67;;;5.60;99.90;;;;;;5063414;28;20197;-77
2021/03/17 01:13:59;;;;;;;4.10;0.90;;;5.60;99.90;;;;;;5064139;28;20212;-77
2021/03/17 01:16:26;;;;;;;3.27;0.90;;;5.60;99.90;;;;;;5083267;28;20220;-80
2021/03/17 01:18:53;;;;;;;0.50;0.50;;;5.70;99.90;;;;;;5088002;28;20208;-78
2021/03/17 01:21:19;;;;;;;0.63;0.40;;;5.70;99.90;;;;;;5088263;28;20215;-84
2021/03/17 01:23:45;;;;;;;1.37;0.57;;;5.70;99.90;;;;;;5088251;28;20212;-83
2021/03/17 01:26:11;;;;;;;1.33;0.67;;;5.70;99.90;;;;;;5084689;28;20204;-80
2021/03/17 01:28:39;;;;;;;4.83;0.80;;;5.80;99.90;;;;;;5078986;28;20201;-83
2021/03/17 01:31:06;;;;;;;1.23;0.67;;;5.80;99.90;;;;;;5064799;28;20896;-81
2021/03/17 01:33:32;;;;;;;2.17;0.70;;;5.90;99.90;;;;;;5072218;28;20208;-79
2021/03/17 01:35:59;;;;;;;2.77;0.87;;;5.90;99.90;;;;;;5087462;28;20227;-82
2021/03/17 01:38:26;;;;;;;1.43;0.60;;;5.90;99.90;;;;;;5087070;28;20728;-82
2021/03/17 01:40:54;;;;;;;4.30;1.00;;;5.90;99.90;;;;;;5087168;28;20239;-79
2021/03/17 01:43:21;;;;;;;3.30;1.30;;;5.90;99.90;;;;;;5085883;28;20632;-78
2021/03/17 01:45:48;;;;;;;1.87;0.73;;;5.90;99.90;;;;;;5089584;28;20196;-83
2021/03/17 01:48:15;;;;;;;4.90;1.50;;;5.90;99.90;;;;;;5088939;28;20208;-80
2021/03/17 01:50:44;;;;;;;1.73;1.10;;;5.90;99.90;;;;;;5088816;28;20605;-76
2021/03/17 01:53:12;;;;;;;2.60;0.83;;;5.90;99.90;;;;;;5089846;28;20201;-77
2021/03/17 01:55:40;;;;;;;1.47;0.90;;;5.90;99.90;;;;;;5088763;28;20626;-79
2021/03/17 01:58:07;;;;;;;1.97;1.20;;;5.90;99.90;;;;;;5088444;28;20215;-77
2021/03/17 02:00:34;;;;;;;2.40;1.40;;;5.90;99.90;;;;;;5075443;28;20205;-84
2021/03/17 02:03:01;;;;;;;3.70;1.30;;;6.00;99.90;;;;;;5068539;28;20240;-82
2021/03/17 02:05:31;;;;;;;4.17;1.30;;;6.00;99.90;;;;;;5087682;28;20238;-84
2021/03/17 02:08:00;;;;;;;2.33;1.20;;;6.00;99.90;;;;;;5091437;28;20204;-79
2021/03/17 02:10:26;;;;;;;5.03;1.60;;;5.90;99.90;;;;;;5090673;28;20204;-78
2021/03/17 02:13:10;;;;;;;4.67;1.20;;;6.00;99.90;;;;;;5089025;28;20193;-84
2021/03/17 02:16:00;;;;;;;4.50;1.10;;;6.00;99.90;;;;;;5069441;28;20195;-83
2021/03/17 02:18:36;;;;;;;4.80;1.43;;;6.00;99.90;;;;;;5071745;28;20308;-77
2021/03/17 02:21:21;;;;;;;2.30;1.30;;;6.10;99.90;;;;;;5072592;28;20185;-84
2021/03/17 02:24:05;;;;;;;4.47;1.47;;;6.10;99.90;;;;;;5089762;28;20197;-83
2021/03/17 02:27:18;;;;;;;5.93;1.67;;;6.10;99.90;;;;;;5076997;28;20197;-83
2021/03/17 02:30:11;;;;;;;5.40;1.57;;;6.10;99.90;;;;;;5076657;28;20200;-78
2021/03/17 02:33:29;;;;;;;8.37;1.80;;;6.10;99.90;;;;;;5069557;28;20193;-84
2021/03/17 02:36:02;;;;;;;4.47;1.60;;;6.20;99.90;;;;;;5069470;28;20232;-83
2021/03/17 02:38:30;;;;;;;4.20;1.67;;;6.20;99.90;;;;;;5079741;28;20639;-78
2021/03/17 02:40:57;;;;;;;3.63;1.70;;;6.20;99.90;;;;;;5089809;28;20247;-82
2021/03/17 02:43:30;;;;;;;4.63;1.53;;;6.20;99.90;;;;;;5086246;28;20207;-77
2021/03/17 02:46:00;;;;;;;4.70;1.20;;;6.20;99.90;;;;;;5085603;28;20465;-77
2021/03/17 02:48:29;;;;;;;3.87;1.17;;;6.20;99.90;;;;;;5083995;28;20196;-78
2021/03/17 02:51:01;;;;;;;4.20;1.43;;;6.20;99.90;;;;;;5075914;28;20199;-78
2021/03/17 02:53:29;;;;;;;5.07;1.20;;;6.20;99.90;;;;;;5085085;28;20314;-78
2021/03/17 02:55:59;;;;;;;2.00;1.00;;;6.20;99.90;;;;;;5085083;28;20274;-82
2021/03/17 02:58:27;;;;;;;2.37;1.13;;;6.20;99.90;;;;;;5082581;28;20197;-77
2021/03/17 03:00:53;;;;;;;1.57;1.00;;;6.20;99.90;;;;;;5066343;28;20205;-77
2021/03/17 03:03:20;;;;;;;2.27;1.10;;;6.20;99.90;;;;;;5065290;28;20204;-80
2021/03/17 03:05:49;;;;;;;6.13;1.90;;;6.20;99.90;;;;;;5065404;28;20338;-78
2021/03/17 03:08:17;;;;;;;5.20;1.10;;;6.20;99.90;;;;;;5065317;28;20196;-78
2021/03/17 03:10:46;;;;;;;6.57;1.00;;;6.30;99.90;;;;;;5068501;28;21056;-80
2021/03/17 03:13:13;;;;;;;6.47;1.00;;;6.30;99.90;;;;;;5086730;28;20246;-84
2021/03/17 03:15:39;;;;;;;3.80;0.80;;;6.20;99.90;;;;;;5087284;28;20204;-81
2021/03/17 03:18:09;;;;;;;4.10;1.20;;;6.20;99.90;;;;;;5087124;28;20205;-79
2021/03/17 03:20:36;;;;;;;4.97;1.83;;;6.20;99.90;;;;;;5075740;28;20205;-84
2021/03/17 03:23:03;;;;;;;4.93;1.57;;;6.30;99.90;;;;;;5067449;28;20202;-84
2021/03/17 03:25:32;;;;;;;4.30;1.10;;;6.20;99.90;;;;;;5073100;28;20234;-80
2021/03/17 03:28:10;;;;;;;1.67;0.80;;;6.30;99.90;;;;;;5086385;28;20976;-77
2021/03/17 03:30:40;;;;;;;3.50;0.70;;;6.30;99.90;;;;;;5087784;28;20192;-84
2021/03/17 03:33:07;;;;;;;4.00;0.90;;;6.30;99.90;;;;;;5087050;28;20257;-79
2021/03/17 03:35:33;;;;;;;2.53;0.73;;;6.30;99.90;;;;;;5086969;28;20201;-79
2021/03/17 03:37:59;;;;;;;1.80;0.60;;;6.30;99.90;;;;;;5076358;28;20229;-84
2021/03/17 03:40:27;;;;;;;3.50;0.97;;;6.30;99.90;;;;;;5065962;28;20266;-83
2021/03/17 03:42:54;;;;;;;2.57;1.10;;;6.30;99.90;;;;;;5066433;28;20193;-79
2021/03/17 03:45:21;;;;;;;4.07;1.00;;;6.20;99.90;;;;;;5065631;28;20820;-78
2021/03/17 03:47:48;;;;;;;6.07;0.90;;;6.20;99.90;;;;;;5065246;28;20201;-82
2021/03/17 03:50:16;;;;;;;4.27;0.93;;;6.20;99.90;;;;;;5064976;28;20245;-81
2021/03/17 03:52:50;;;;;;;3.77;0.93;;;6.20;99.90;;;;;;5065229;28;20213;-80
2021/03/17 03:55:23;;;;;;;4.90;0.90;;;6.20;99.90;;;;;;5065012;28;20787;-82
2021/03/17 03:57:52;;;;;;;2.60;1.13;;;6.20;99.90;;;;;;5064379;28;20283;-80
2021/03/17 04:00:22;;;;;;;10.97;1.27;;;6.20;99.90;;;;;;5064394;28;20209;-78
2021/03/17 04:02:51;;;;;;;3.10;1.23;;;6.20;99.90;;;;;;5071591;28;20205;-77
2021/03/17 04:05:19;;;;;;;1.40;0.70;;;6.20;99.90;;;;;;5084984;28;20230;-78
2021/03/17 04:07:48;;;;;;;1.47;0.80;;;6.20;99.90;;;;;;5083995;28;20192;-78
2021/03/17 04:10:16;;;;;;;3.20;1.23;;;6.20;99.90;;;;;;5067187;28;20611;-79
2021/03/17 04:12:45;;;;;;;5.13;0.90;;;6.20;99.90;;;;;;5064745;28;20295;-80
2021/03/17 04:15:14;;;;;;;4.73;0.97;;;6.20;99.90;;;;;;5064864;28;20796;-82
2021/03/17 04:17:46;;;;;;;4.47;0.90;;;6.20;99.90;;;;;;5065723;28;20229;-78
2021/03/17 04:20:17;;;;;;;4.97;0.67;;;6.20;99.90;;;;;;5064178;28;20198;-78
2021/03/17 04:22:45;;;;;;;5.53;1.20;;;6.20;99.90;;;;;;5065527;28;20204;-79
2021/03/17 04:25:15;;;;;;;4.33;0.90;;;6.10;99.90;;;;;;5064969;28;20208;-81
2021/03/17 04:27:45;;;;;;;4.60;0.67;;;6.10;99.90;;;;;;5063934;28;20213;-79
2021/03/17 04:30:13;;;;;;;2.67;0.90;;;6.20;99.90;;;;;;5070478;28;20882;-82
2021/03/17 04:32:42;;;;;;;3.77;1.20;;;6.10;99.90;;;;;;5084235;28;20208;-77
2021/03/17 04:35:11;;;;;;;7.93;1.30;;;6.10;99.90;;;;;;5084517;28;20216;-84
2021/03/17 04:37:38;;;;;;;2.13;0.60;;;6.10;99.90;;;;;;5074882;28;20232;-79
2021/03/17 04:40:07;;;;;;;3.97;0.80;;;6.10;99.90;;;;;;5065280;28;20247;-78
2021/03/17 04:42:33;;;;;;;2.77;0.80;;;6.10;99.90;;;;;;5074026;28;20206;-79
2021/03/17 04:45:00;;;;;;;3.17;0.70;;;6.10;99.90;;;;;;5072141;28;20215;-79
2021/03/17 04:47:28;;;;;;;2.70;0.80;;;6.10;99.90;;;;;;5080005;28;20652;-79
2021/03/17 04:49:56;;;;;;;6.80;1.20;;;6.10;99.90;;;;;;5077914;28;20211;-79
2021/03/17 04:52:26;;;;;;;3.83;0.70;;;6.10;99.90;;;;;;5084292;28;20201;-80
2021/03/17 04:54:52;;;;;;;2.17;0.73;;;6.10;99.90;;;;;;5075887;28;20232;-79
2021/03/17 04:57:22;;;;;;;0.93;0.60;;;6.20;99.90;;;;;;5075973;28;20221;-79
2021/03/17 04:59:50;;;;;;;3.07;0.93;;;6.20;99.90;;;;;;5069570;28;20511;-79
2021/03/17 05:02:21;;;;;;;1.87;1.10;;;6.20;99.90;;;;;;5063284;28;20205;-78
2021/03/17 05:04:48;;;;;;;3.23;1.10;;;6.20;99.90;;;;;;5064262;28;20193;-83
2021/03/17 05:07:17;;;;;;;2.97;0.90;;;6.20;99.90;;;;;;5064384;28;20204;-77
2021/03/17 05:09:43;;;;;;;1.33;0.93;;;6.20;99.90;;;;;;5063647;28;20200;-81
2021/03/17 05:12:13;;;;;;;2.97;1.30;;;6.20;99.90;;;;;;5063551;28;20213;-78
2021/03/17 05:14:40;;;;;;;3.33;0.70;;;6.10;99.90;;;;;;5063034;28;20209;-78
2021/03/17 05:17:08;;;;;;;1.60;0.70;;;6.10;99.90;;;;;;5062313;28;20237;-79
2021/03/17 05:19:36;;;;;;;3.90;0.80;;;6.10;99.90;;;;;;5064570;28;20208;-79
2021/03/17 05:22:03;;;;;;;1.93;0.50;;;6.00;99.90;;;;;;5067438;28;20208;-78
2021/03/17 05:24:30;;;;;;;1.70;0.70;;;6.10;99.90;;;;;;5066652;28;20576;-84
2021/03/17 05:26:58;;;;;;;2.17;0.60;;;6.10;99.90;;;;;;5066983;28;20201;-79
2021/03/17 05:29:26;;;;;;;4.87;0.60;;;6.00;99.90;;;;;;5068299;28;20204;-78
2021/03/17 05:31:53;;;;;;;1.90;0.70;;;6.00;99.90;;;;;;5069009;28;20220;-80
2021/03/17 05:34:20;;;;;;;1.30;1.13;;;6.10;99.90;;;;;;5068695;28;20193;-82
2021/03/17 05:36:46;;;;;;;1.30;0.83;;;6.10;99.90;;;;;;5069515;28;20225;-78
2021/03/17 05:39:13;;;;;;;3.57;0.90;;;6.00;99.90;;;;;;5068684;28;20233;-76
2021/03/17 05:41:41;;;;;;;1.27;0.90;;;6.00;99.90;;;;;;5073274;28;20231;-81
2021/03/17 05:44:09;;;;;;;2.80;1.17;;;5.90;99.90;;;;;;5089056;28;20200;-82
2021/03/17 05:46:36;;;;;;;4.13;1.20;;;5.90;99.90;;;;;;5087868;28;20281;-82
2021/03/17 05:49:03;;;;;;;4.07;1.20;;;5.90;99.90;;;;;;5069592;28;20597;-79
2021/03/17 05:51:30;;;;;;;3.87;1.43;;;5.90;99.90;;;;;;5071456;28;20201;-83
2021/03/17 05:53:56;;;;;;;1.83;1.10;;;5.80;99.90;;;;;;5072211;28;20209;-82
2021/03/17 05:56:23;;;;;;;2.97;1.60;;;5.80;99.90;;;;;;5071330;28;20302;-84
2021/03/17 05:58:52;;;;;;;1.40;1.10;;;5.80;99.90;;;;;;5071867;28;20207;-81
2021/03/17 06:01:20;;;;;;;2.37;1.13;;;5.80;99.90;;;;;;5071351;28;20231;-83
2021/03/17 06:03:47;;;;;;;4.30;1.50;;;5.70;99.90;;;;;;5071811;28;20256;-83
2021/03/17 06:06:16;;;;;;;1.63;1.20;;;5.70;99.90;;;;;;5071625;28;20204;-82
2021/03/17 06:08:46;;;;;;;2.10;1.20;;;5.80;99.90;;;;;;5071388;28;20231;-83
2021/03/17 06:11:14;;;;;;;2.40;1.10;;;5.80;99.90;;;;;;5072587;28;20201;-81
2021/03/17 06:13:46;;;;;;;3.77;1.07;;;5.80;99.90;;;;;;5072578;28;20197;-81
2021/03/17 06:16:16;;;;;;;3.60;1.00;;;5.80;99.90;;;;;;5071875;28;20269;-81
2021/03/17 06:18:43;;;;;;;3.17;0.97;;;5.80;99.90;;;;;;5071601;28;20617;-84
2021/03/17 06:21:17;;;;;;;2.67;0.90;;;5.80;99.90;;;;;;5071532;28;20487;-85
2021/03/17 06:23:44;;;;;;;4.97;1.10;;;5.80;99.90;;;;;;5071196;28;20212;-83
2021/03/17 06:26:10;;;;;;;3.07;1.23;;;5.80;99.90;;;;;;5070261;28;20209;-82
2021/03/17 06:28:37;;;;;;;5.33;2.33;;;5.70;99.90;;;;;;5070568;28;20197;-85
2021/03/17 06:31:04;;;;;;;10.67;1.90;;;5.70;99.90;;;;;;5072154;28;20204;-83
2021/03/17 06:33:31;;;;;;;4.10;2.20;;;5.70;99.90;;;;;;5086330;28;20223;-80
2021/03/17 06:36:15;;;;;;;4.70;1.67;;;5.70;99.90;;;;;;5085368;28;20208;-78
2021/03/17 06:38:43;;;;;;;2.30;1.43;;;5.80;99.90;;;;;;5076709;28;20723;-78
2021/03/17 06:41:10;;;;;;;2.20;1.40;;;5.80;99.90;;;;;;5065557;28;21001;-76
2021/03/17 06:43:38;;;;;;;5.07;1.60;;;5.80;99.90;;;;;;5065716;28;20259;-78
2021/03/17 06:46:05;;;;;;;6.33;1.80;;;5.80;99.90;;;;;;5065800;28;20617;-79
2021/03/17 06:48:32;;;;;;;1.87;1.60;;;5.90;99.90;;;;;;5067057;28;20228;-84
2021/03/17 06:51:05;;;;;;;6.70;1.93;;;5.90;99.90;;;;;;5076887;28;20201;-79
2021/03/17 06:53:45;;;;;;;2.90;1.50;;;5.90;99.90;;;;;;5082999;28;20961;-79
2021/03/17 06:56:14;;;;;;;2.30;1.50;;;5.80;99.90;;;;;;5082423;28;20205;-84
2021/03/17 06:58:41;;;;;;;2.13;1.80;;;5.80;99.90;;;;;;5064904;28;20208;-77
2021/03/17 07:01:26;;;;;;;6.57;1.60;;;5.70;99.90;;;;;;5064025;28;20667;-77
2021/03/17 07:03:58;;;;;;;3.10;1.17;;;5.70;99.90;;;;;;5064902;28;20647;-77
2021/03/17 07:06:24;;;;;;;2.60;1.17;;;5.60;99.90;;;;;;5064089;28;20291;-77
2021/03/17 07:08:51;;;;;;;3.47;1.40;;;5.70;99.90;;;;;;5064335;28;20205;-77
2021/03/17 07:11:22;;;;;;;3.37;1.20;;;5.60;99.90;;;;;;5063741;28;20224;-77
2021/03/17 07:14:06;;;;;;;3.70;1.40;;;5.70;99.90;;;;;;5064324;28;20209;-78
2021/03/17 07:16:35;;;;;;;5.40;0.80;;;5.70;99.90;;;;;;5064437;28;20224;-78
2021/03/17 07:19:04;;;;;;;4.40;1.43;;;5.70;99.90;;;;;;5064480;28;20622;-77
2021/03/17 07:21:33;;;;;;;2.23;0.83;;;5.60;99.90;;;;;;5062689;28;20662;-77
2021/03/17 07:24:00;;;;;;;1.00;0.90;;;5.70;99.90;;;;;;5064573;28;20197;-78
2021/03/17 07:26:27;;;;;;;4.13;0.80;;;5.70;99.90;;;;;;5064281;28;20201;-78
2021/03/17 07:29:11;;;;;;;3.47;1.33;;;5.80;99.90;;;;;;5064531;28;20204;-77
2021/03/17 07:31:39;;;;;;;7.13;1.00;;;5.80;99.90;;;;;;5063740;28;20215;-77
2021/03/17 07:34:17;;;;;;;3.63;1.20;;;5.80;99.90;;;;;;5063852;28;20202;-79
2021/03/17 07:36:46;;;;;;;5.63;1.60;;;5.80;99.90;;;;;;5064130;28;20220;-77
2021/03/17 07:39:16;;;;;;;3.00;1.40;;;5.80;99.90;;;;;;5064665;28;20327;-79
2021/03/17 07:41:43;;;;;;;7.43;1.40;;;5.90;99.90;;;;;;5064175;28;20198;-78
2021/03/17 07:44:12;;;;;;;5.77;1.70;;;5.90;99.90;;;;;;5063231;28;20190;-77
2021/03/17 07:46:41;;;;;;;9.53;1.60;;;5.90;99.90;;;;;;5075910;28;20205;-79
2021/03/17 07:49:10;;;;;;;7.17;1.43;;;5.90;99.90;;;;;;5081115;28;20212;-77
2021/03/17 07:51:41;;;;;;;3.53;1.27;;;6.00;99.90;;;;;;5079659;28;20208;-80
2021/03/17 07:54:08;;;;;;;5.33;1.80;;;6.00;99.90;;;;;;5085381;28;20285;-78
2021/03/17 07:56:37;;;;;;;4.07;1.50;;;6.00;99.90;;;;;;5083892;28;20235;-77
2021/03/17 07:59:05;;;;;;;7.10;1.50;;;6.00;99.90;;;;;;5085200;28;20202;-78
2021/03/17 08:01:32;;;;;;;13.90;1.63;;;6.10;99.90;;;;;;5084220;28;20200;-77
2021/03/17 08:04:02;;;;;;;2.73;1.03;;;6.00;99.90;;;;;;5083561;28;20287;-77
2021/03/17 08:06:31;;;;;;;7.97;1.10;;;6.10;99.90;;;;;;5063929;28;20562;-83
2021/03/17 08:08:59;;;;;;;4.60;1.37;;;6.10;99.90;;;;;;5063465;28;20546;-78
2021/03/17 08:11:28;;;;;;;5.20;1.40;;;6.10;99.90;;;;;;5062774;28;20647;-77
2021/03/17 08:13:56;;;;;;;6.17;2.20;;;6.10;99.90;;;;;;5064638;28;20707;-76
2021/03/17 08:19:32;;;;;;;6.10;1.27;;;6.30;99.90;;;;;;4995594;28;20473;-78
2021/03/17 08:22:00;;;;;;;5.60;1.23;;;6.40;99.90;;;;;;5065567;28;20638;-77
2021/03/17 08:24:44;;;;;;;5.57;0.77;;;6.50;99.90;;;;;;5082768;28;20474;-79
2021/03/17 08:27:22;;;;;;;3.60;1.27;;;6.60;99.90;;;;;;5070509;22;20287;-77
2021/03/17 08:29:51;;;;;;;6.90;1.70;;;6.60;99.90;;;;;;5075308;22;20365;-77
2021/03/17 08:32:19;;;;;;;12.63;2.10;;;6.60;99.90;;;;;;5082817;28;20216;-78
2021/03/17 08:34:56;;;;;;;1.93;1.13;;;6.60;99.90;;;;;;5069037;28;20217;-78
2021/03/17 08:37:48;;;;;;;10.13;1.40;;;6.60;99.90;;;;;;5062575;28;20219;-78
2021/03/17 08:40:45;;;;;;;5.33;1.40;;;6.60;99.90;;;;;;5061724;28;20629;-77
2021/03/17 08:43:43;;;;;;;6.43;1.33;;;6.70;99.90;;;;;;5064496;28;20606;-78
2021/03/17 08:46:11;;;;;;;3.00;1.90;;;6.60;99.90;;;;;;5063627;28;20204;-78
2021/03/17 08:49:01;;;;;;;1.77;1.00;;;6.60;99.90;;;;;;5065127;28;20208;-77
2021/03/17 08:52:04;;;;;;;7.17;1.60;;;6.60;99.90;;;;;;5083647;28;20276;-77
2021/03/17 08:55:04;;;;;;;4.50;1.07;;;6.60;99.90;;;;;;5078494;28;20198;-78
2021/03/17 08:57:54;;;;;;;8.97;3.03;;;6.70;99.90;;;;;;5062319;28;20221;-78
2021/03/17 09:00:56;;;;;;;3.60;1.20;;;6.80;99.90;;;;;;5063323;28;20210;-83
2021/03/17 09:03:44;;;;;;;6.43;2.60;;;6.70;99.90;;;;;;5062968;28;20196;-77
2021/03/17 09:06:23;;;;;;;2.27;1.03;;;6.70;99.90;;;;;;5062942;28;20857;-86
2021/03/17 09:08:55;;;;;;;2.93;0.90;;;6.70;99.90;;;;;;5062845;28;20260;-81
2021/03/17 09:11:51;;;;;;;2.77;1.00;;;6.70;99.90;;;;;;5067086;28;20263;-83
2021/03/17 09:14:24;;;;;;;3.10;1.10;;;6.70;99.90;;;;;;5067529;28;20228;-86
2021/03/17 09:17:27;;;;;;;5.57;1.13;;;6.70;99.90;;;;;;5067152;28;20213;-83
2021/03/17 09:19:55;;;;;;;4.80;1.47;;;6.80;99.90;;;;;;5066162;28;20232;-76
2021/03/17 09:22:49;;;;;;;8.70;1.43;;;6.90;99.90;;;;;;5066161;28;20250;-86
2021/03/17 09:25:27;;;;;;;4.13;1.20;;;7.00;99.90;;;;;;5065153;28;20213;-76
2021/03/17 09:28:02;;;;;;;5.77;1.60;;;7.20;99.90;;;;;;5064497;28;20196;-80
2021/03/17 09:30:33;;;;;;;8.50;1.23;;;7.20;99.90;;;;;;5062232;28;20241;-79
2021/03/17 09:33:03;;;;;;;6.93;1.73;;;7.30;99.90;;;;;;5062367;28;20239;-77
2021/03/17 09:35:29;;;;;;;7.77;1.67;;;7.40;99.90;;;;;;5061945;28;20540;-76
2021/03/17 09:38:10;;;;;;;8.00;1.00;;;7.40;99.90;;;;;;5062951;28;20228;-80
2021/03/17 09:40:44;;;;;;;3.80;0.97;;;7.30;99.90;;;;;;5062860;28;20221;-76
2021/03/17 09:43:34;;;;;;;3.63;0.80;;;7.30;99.90;;;;;;5062931;28;20185;-78
2021/03/17 09:46:01;;;;;;;4.70;0.87;;;7.40;99.90;;;;;;5063485;28;20243;-77
2021/03/17 09:48:27;;;;;;;2.20;1.10;;;7.30;99.90;;;;;;5061573;28;20212;-79
2021/03/17 09:50:59;;;;;;;1.63;0.70;;;7.30;99.90;;;;;;5068137;28;20259;-79
2021/03/17 09:53:25;;;;;;;4.10;0.87;;;7.40;99.90;;;;;;5063801;28;20240;-89
2021/03/17 09:55:52;;;;;;;5.43;2.00;;;7.50;99.90;;;;;;5063228;28;20274;-82
2021/03/17 09:58:19;;;;;;;4.43;1.13;;;7.50;99.90;;;;;;5062211;28;20236;-79
2021/03/17 10:00:48;;;;;;;7.43;1.10;;;7.60;99.90;;;;;;5062573;28;20202;-79
2021/03/17 10:03:15;;;;;;;2.93;1.13;;;7.60;99.90;;;;;;5054828;28;20261;-79
2021/03/17 10:05:42;;;;;;;8.13;1.43;;;7.60;99.90;;;;;;5064605;28;20617;-79
2021/03/17 10:08:09;;;;;;;3.53;0.93;;;7.60;99.90;;;;;;5066831;28;20201;-78
2021/03/17 10:10:36;;;;;;;2.70;1.00;;;7.70;99.90;;;;;;5065932;28;20205;-86
2021/03/17 10:13:03;;;;;;;9.80;1.87;;;7.70;99.90;;;;;;5066261;28;20209;-80
2021/03/17 10:15:30;;;;;;;4.47;1.00;;;7.60;99.90;;;;;;5069244;28;20205;-89
2021/03/17 10:17:58;;;;;;;15.40;2.07;;;7.70;99.90;;;;;;5075932;28;20224;-77
2021/03/17 10:20:27;;;;;;;5.60;1.27;;;7.80;99.90;;;;;;5092938;28;20209;-87
2021/03/17 10:22:58;;;;;;;7.37;2.53;;;7.90;99.90;;;;;;5091871;28;20201;-89
2021/03/17 10:25:26;;;;;;;5.77;1.20;;;7.90;99.90;;;;;;5087953;28;20208;-77
2021/03/17 10:27:57;;;;;;;8.63;1.77;;;8.00;99.90;;;;;;5085692;28;20893;-82
2021/03/17 10:30:29;;;;;;;7.40;1.20;;;8.00;99.90;;;;;;5068328;28;20252;-76
2021/03/17 10:33:00;;;;;;;7.97;1.43;;;8.10;99.90;;;;;;5069967;28;20606;-90
2021/03/17 10:35:28;;;;;;;4.63;1.10;;;8.10;99.90;;;;;;5073164;28;20570;-90
2021/03/17 10:37:54;;;;;;;3.97;1.30;;;8.20;99.90;;;;;;5075281;28;20630;-90
2021/03/17 10:40:22;;;;;;;6.43;1.37;;;8.10;99.90;;;;;;5072091;28;20653;-91
2021/03/17 10:42:52;;;;;;;9.03;1.50;;;7.90;99.90;;;;;;5071044;28;20202;-89
2021/03/17 10:45:22;;;;;;;6.40;1.10;;;7.70;99.90;;;;;;5071904;28;20194;-91
2021/03/17 10:47:49;;;;;;;6.57;1.23;;;7.70;99.90;;;;;;5071569;28;20197;-89
2021/03/17 10:50:18;;;;;;;6.37;1.27;;;7.80;99.90;;;;;;5073119;28;20261;-91
2021/03/17 10:52:45;;;;;;;9.00;1.50;;;7.90;99.90;;;;;;5072983;28;20212;-86
2021/03/17 10:55:22;;;;;;;9.77;2.20;;;7.80;99.90;;;;;;5072903;28;20688;-82
2021/03/17 10:57:49;;;;;;;5.77;1.50;;;7.80;99.90;;;;;;5073253;28;20229;-89
2021/03/17 11:00:22;;;;;;;6.30;1.70;;;7.70;99.90;;;;;;5070674;28;20288;-87
2021/03/17 11:02:49;;;;;;;7.60;1.67;;;7.80;99.90;;;;;;5073235;28;20193;-89
2021/03/17 11:05:21;;;;;;;6.67;1.20;;;8.00;99.90;;;;;;5081490;28;20273;-89
2021/03/17 11:08:05;;;;;;;4.07;1.03;;;8.10;99.90;;;;;;5090296;28;20196;-87
2021/03/17 11:10:58;;;;;;;11.80;2.00;;;8.30;99.90;;;;;;5089020;28;20208;-87
2021/03/17 11:13:38;;;;;;;5.70;1.17;;;8.30;99.90;;;;;;5091145;28;20246;-83
2021/03/17 11:16:35;;;;;;;9.23;2.30;;;8.30;99.90;;;;;;5073205;28;20605;-80
2021/03/17 11:19:02;;;;;;;8.13;2.00;;;8.20;99.90;;;;;;5065484;28;20197;-84
2021/03/17 11:21:31;;;;;;;5.10;1.47;;;8.30;99.90;;;;;;5065787;28;20208;-79
2021/03/17 11:23:59;;;;;;;10.20;1.57;;;8.30;99.90;;;;;;5068772;28;20201;-81
2021/03/17 11:26:29;;;;;;;11.43;2.27;;;8.30;99.90;;;;;;5084977;28;20193;-78
2021/03/17 11:28:57;;;;;;;4.77;1.50;;;8.30;99.90;;;;;;5086850;28;20205;-76
2021/03/17 11:31:32;;;;;;;5.93;1.27;;;8.30;99.90;;;;;;5085901;28;20297;-89
2021/03/17 11:33:59;;;;;;;9.70;1.87;;;8.30;99.90;;;;;;5084848;28;20208;-80
2021/03/17 11:36:26;;;;;;;5.13;1.70;;;8.40;99.90;;;;;;5086287;28;20208;-89
2021/03/17 11:38:55;;;;;;;6.93;1.87;;;8.50;99.90;;;;;;5084869;28;20964;-83
2021/03/17 11:41:22;;;;;;;6.70;1.07;;;8.60;99.90;;;;;;5084451;28;20211;-86
2021/03/17 11:43:48;;;;;;;5.97;1.23;;;8.90;99.90;;;;;;5085629;28;20592;-79
2021/03/17 11:46:15;;;;;;;12.43;1.83;;;8.90;99.90;;;;;;5073973;28;20227;-79
2021/03/17 11:48:41;;;;;;;8.47;1.50;;;9.00;99.90;;;;;;5065737;28;20597;-81
2021/03/17 11:51:09;;;;;;;7.67;1.57;;;9.00;99.90;;;;;;5079600;28;20205;-81
2021/03/17 11:53:36;;;;;;;14.73;2.00;;;8.90;99.90;;;;;;5085199;28;20667;-79
2021/03/17 11:56:05;;;;;;;12.17;2.00;;;8.90;99.90;;;;;;5086142;28;20214;-80
2021/03/17 11:58:32;;;;;;;9.47;1.50;;;8.80;99.90;;;;;;5069496;28;20524;-77
2021/03/17 12:00:58;;;;;;;3.80;1.17;;;8.80;99.90;;;;;;5066787;28;20259;-80
2021/03/17 12:03:24;;;;;;;7.57;1.43;;;8.80;99.90;;;;;;5066718;28;20204;-87
2021/03/17 12:05:51;;;;;;;8.83;2.33;;;9.00;99.90;;;;;;5066289;28;20209;-86
2021/03/17 12:08:17;;;;;;;7.10;1.53;;;9.10;99.90;;;;;;5083184;28;20205;-82
2021/03/17 12:10:44;;;;;;;6.27;1.83;;;9.30;99.90;;;;;;5065302;28;20224;-81
2021/03/17 12:13:11;;;;;;;6.50;2.00;;;9.30;99.90;;;;;;5065488;28;20292;-79
2021/03/17 12:15:38;;;;;;;14.10;2.37;;;9.50;99.90;;;;;;5066519;28;20205;-77
2021/03/17 12:18:05;;;;;;;7.33;1.37;;;9.60;99.90;;;;;;5065187;28;20221;-79
2021/03/17 12:20:32;;;;;;;9.13;2.67;;;9.70;99.90;;;;;;5064446;28;20235;-79
2021/03/17 12:22:59;;;;;;;2.77;1.20;;;9.80;99.90;;;;;;5064841;28;20208;-82
2021/03/17 12:25:26;;;;;;;8.07;1.90;;;9.90;99.90;;;;;;5064152;28;20759;-80
2021/03/17 12:27:52;;;;;;;12.43;1.57;;;9.90;99.90;;;;;;5063646;28;20197;-79
2021/03/17 12:30:20;;;;;;;5.93;1.63;;;10.00;99.90;;;;;;5078043;28;20250;-81
2021/03/17 12:32:48;;;;;;;15.50;1.90;;;10.00;99.90;;;;;;5082637;28;20192;-77
2021/03/17 12:35:16;;;;;;;12.77;1.83;;;10.00;99.90;;;;;;5068374;28;20205;-77
2021/03/17 12:37:44;;;;;;;7.33;1.37;;;9.90;99.90;;;;;;5062976;28;20773;-78
2021/03/17 12:40:15;;;;;;;7.70;2.00;;;9.90;99.90;;;;;;5063034;28;20236;-79
2021/03/17 12:42:43;;;;;;;6.30;1.60;;;10.10;99.90;;;;;;5065207;28;20205;-79
2021/03/17 12:45:11;;;;;;;8.97;2.93;;;10.10;99.90;;;;;;5084200;28;20287;-78
2021/03/17 12:47:40;;;;;;;8.63;1.37;;;10.10;99.90;;;;;;5084866;28;20204;-82
2021/03/17 12:50:09;;;;;;;6.47;1.43;;;10.10;99.90;;;;;;5085725;28;20208;-85
2021/03/17 12:52:36;;;;;;;6.70;1.63;;;10.10;99.90;;;;;;5081241;28;20204;-80
2021/03/17 12:55:03;;;;;;;5.70;1.43;;;10.10;99.90;;;;;;5063835;28;20200;-77
2021/03/17 12:57:30;;;;;;;8.33;1.57;;;10.30;99.90;;;;;;5062439;28;20597;-80
2021/03/17 12:59:57;;;;;;;5.47;1.20;;;10.30;99.90;;;;;;5064628;28;20225;-86
2021/03/17 13:02:23;;;;;;;9.90;1.67;;;10.20;99.90;;;;;;5085094;28;20205;-85
2021/03/17 13:04:50;;;;;;;12.23;1.90;;;10.10;99.90;;;;;;5087014;28;20207;-77
2021/03/17 13:07:17;;;;;;;6.77;2.00;;;10.20;99.90;;;;;;5085485;28;20981;-85
2021/03/17 13:09:44;;;;;;;4.63;1.33;;;10.20;99.90;;;;;;5085682;28;20205;-86
2021/03/17 13:12:10;;;;;;;6.90;2.03;;;10.20;99.90;;;;;;5086768;28;20224;-79
2021/03/17 13:14:36;;;;;;;6.37;2.20;;;10.20;99.90;;;;;;5069144;28;20201;-82